createdAt,value
2018-08-31T00:02:18.840Z,75.21
2018-08-31T00:04:58.468Z,76.19
2018-08-31T00:08:37.912Z,75.75
2018-08-31T00:12:09.388Z,75.53
2018-08-31T00:14:37.764Z,74.84
2018-08-31T00:17:06.123Z,75.62
2018-08-31T00:19:34.470Z,74.87
2018-08-31T00:22:02.970Z,75.00
2018-08-31T00:24:42.750Z,75.34
2018-08-31T00:27:22.697Z,75.14
2018-08-31T00:30:02.264Z,75.24
2018-08-31T00:34:47.993Z,74.95
2018-08-31T00:37:25.794Z,75.23
2018-08-31T00:42:11.316Z,75.15
2018-08-31T00:44:50.969Z,75.21
2018-08-31T00:47:19.320Z,75.29
2018-08-31T00:49:47.717Z,75.55
2018-08-31T00:52:16.002Z,76.15
2018-08-31T00:54:45.217Z,76.33
2018-08-31T00:57:13.677Z,76.15
2018-08-31T00:59:41.989Z,76.27
2018-08-31T01:02:10.277Z,76.24
2018-08-31T01:04:38.566Z,77.24
2018-08-31T01:07:06.914Z,76.30
2018-08-31T01:09:35.246Z,76.31
2018-08-31T01:12:03.565Z,76.67
2018-08-31T01:14:31.878Z,76.74
2018-08-31T01:17:00.265Z,77.07
2018-08-31T01:19:28.602Z,76.80
2018-08-31T01:21:57.052Z,76.60
2018-08-31T01:24:25.385Z,76.91
2018-08-31T01:26:53.730Z,76.97
2018-08-31T01:29:22.081Z,77.34
2018-08-31T01:31:50.583Z,76.87
2018-08-31T01:34:21.967Z,77.14
2018-08-31T01:36:50.271Z,77.76
2018-08-31T01:39:18.625Z,78.15
2018-08-31T01:41:46.975Z,77.56
2018-08-31T01:44:15.379Z,77.88
2018-08-31T01:46:43.917Z,77.90
2018-08-31T01:49:12.641Z,78.84
2018-08-31T01:51:41.050Z,78.47
2018-08-31T01:54:09.488Z,78.29
2018-08-31T01:56:37.803Z,78.58
2018-08-31T01:59:06.204Z,78.57
2018-08-31T02:01:34.681Z,79.37
2018-08-31T02:04:03.936Z,78.76
2018-08-31T02:06:33.221Z,79.59
2018-08-31T02:09:06.863Z,79.38
2018-08-31T02:11:35.195Z,79.73
2018-08-31T02:14:03.884Z,79.62
2018-08-31T02:16:32.224Z,79.35
2018-08-31T02:19:00.614Z,80.25
2018-08-31T02:21:28.906Z,80.18
2018-08-31T02:23:57.249Z,79.92
2018-08-31T02:26:25.577Z,80.35
2018-08-31T02:28:53.865Z,80.68
2018-08-31T02:31:22.520Z,81.07
2018-08-31T02:33:51.109Z,80.87
2018-08-31T02:36:19.432Z,81.20
2018-08-31T02:38:47.750Z,81.00
2018-08-31T02:41:16.340Z,80.74
2018-08-31T02:43:45.738Z,81.14
2018-08-31T02:46:14.062Z,81.14
2018-08-31T02:48:42.408Z,81.01
2018-08-31T02:51:10.715Z,81.73
2018-08-31T02:53:39.037Z,81.42
2018-08-31T02:56:07.326Z,81.75
2018-08-31T02:58:35.647Z,82.22
2018-08-31T03:01:03.944Z,82.64
2018-08-31T03:03:32.304Z,82.53
2018-08-31T03:06:00.591Z,82.36
2018-08-31T03:08:28.989Z,82.75
2018-08-31T03:10:57.702Z,83.11
2018-08-31T03:13:26.052Z,82.41
2018-08-31T03:15:54.326Z,83.08
2018-08-31T03:18:22.725Z,82.61
2018-08-31T03:20:51.083Z,82.63
2018-08-31T03:23:19.423Z,83.47
2018-08-31T03:25:47.775Z,83.18
2018-08-31T03:28:16.107Z,83.43
2018-08-31T03:30:44.491Z,83.18
2018-08-31T03:33:12.859Z,83.19
2018-08-31T03:35:41.162Z,83.53
2018-08-31T03:38:09.713Z,83.79
2018-08-31T03:40:38.001Z,83.70
2018-08-31T03:43:06.655Z,84.08
2018-08-31T03:45:34.944Z,83.89
2018-08-31T03:48:03.262Z,83.86
2018-08-31T03:50:31.583Z,84.73
2018-08-31T03:52:59.882Z,84.26
2018-08-31T03:55:28.234Z,83.69
2018-08-31T03:57:56.750Z,83.79
2018-08-31T04:00:25.062Z,83.69
2018-08-31T04:02:53.384Z,83.66
2018-08-31T04:05:21.723Z,83.94
2018-08-31T04:07:50.050Z,84.19
2018-08-31T04:10:18.367Z,83.83
2018-08-31T04:12:46.683Z,84.56
2018-08-31T04:15:14.996Z,84.36
2018-08-31T04:17:43.337Z,83.96
2018-08-31T04:20:11.648Z,84.24
2018-08-31T04:22:40.005Z,84.31
2018-08-31T04:25:08.328Z,84.88
2018-08-31T04:27:36.659Z,84.67
2018-08-31T04:30:06.091Z,84.47
2018-08-31T04:32:34.393Z,84.54
2018-08-31T04:35:03.239Z,84.36
2018-08-31T04:37:31.604Z,84.96
2018-08-31T04:40:00.084Z,85.29
2018-08-31T04:42:28.432Z,85.23
2018-08-31T04:44:56.773Z,84.64
2018-08-31T04:47:25.132Z,85.03
2018-08-31T04:49:53.470Z,85.33
2018-08-31T04:52:21.802Z,84.65
2018-08-31T04:54:50.288Z,85.52
2018-08-31T04:57:18.627Z,85.37
2018-08-31T04:59:46.992Z,85.63
2018-08-31T05:02:15.311Z,85.32
2018-08-31T05:04:43.644Z,84.88
2018-08-31T05:07:12.388Z,85.20
2018-08-31T05:09:40.730Z,85.20
2018-08-31T05:12:09.114Z,84.86
2018-08-31T05:14:37.433Z,85.29
2018-08-31T05:17:05.761Z,85.08
2018-08-31T05:19:34.134Z,84.70
2018-08-31T05:22:02.500Z,85.60
2018-08-31T05:24:30.805Z,85.68
2018-08-31T05:26:59.170Z,84.85
2018-08-31T05:29:27.519Z,85.29
2018-08-31T05:31:55.794Z,84.91
2018-08-31T05:34:24.211Z,85.37
2018-08-31T05:36:52.479Z,84.80
2018-08-31T05:39:20.760Z,84.11
2018-08-31T05:41:49.037Z,84.06
2018-08-31T05:44:17.323Z,84.29
2018-08-31T05:46:45.648Z,83.55
2018-08-31T05:49:13.984Z,83.36
2018-08-31T05:51:42.320Z,82.64
2018-08-31T05:54:10.644Z,83.05
2018-08-31T05:56:39.082Z,83.11
2018-08-31T05:59:07.462Z,82.76
2018-08-31T06:01:35.757Z,83.22
2018-08-31T06:04:04.093Z,83.14
2018-08-31T06:06:32.418Z,83.47
2018-08-31T06:09:00.705Z,83.68
2018-08-31T06:11:29.021Z,82.85
2018-08-31T06:13:57.347Z,82.62
2018-08-31T06:16:25.720Z,82.56
2018-08-31T06:18:54.034Z,82.56
2018-08-31T06:21:22.381Z,83.03
2018-08-31T06:23:50.759Z,82.42
2018-08-31T06:26:19.153Z,82.42
2018-08-31T06:28:47.456Z,81.64
2018-08-31T06:31:15.733Z,81.05
2018-08-31T06:33:44.072Z,81.20
2018-08-31T06:36:12.473Z,80.84
2018-08-31T06:38:40.785Z,80.90
2018-08-31T06:41:09.089Z,80.96
2018-08-31T06:43:37.457Z,80.20
2018-08-31T06:46:06.096Z,80.28
2018-08-31T06:48:34.383Z,80.70
2018-08-31T06:51:02.730Z,80.17
2018-08-31T06:53:31.176Z,79.53
2018-08-31T06:55:59.499Z,79.25
2018-08-31T06:58:27.834Z,79.26
2018-08-31T07:00:56.111Z,78.99
2018-08-31T07:03:24.410Z,78.74
2018-08-31T07:05:52.861Z,77.82
2018-08-31T07:08:22.199Z,78.24
2018-08-31T07:10:50.481Z,78.10
2018-08-31T07:13:18.788Z,77.92
2018-08-31T07:15:47.103Z,77.48
2018-08-31T07:18:15.385Z,77.81
2018-08-31T07:20:43.705Z,76.38
2018-08-31T07:23:12.044Z,75.10
2018-08-31T07:25:40.363Z,74.76
2018-08-31T07:28:08.700Z,73.81
2018-08-31T07:30:37.031Z,74.17
2018-08-31T07:33:05.717Z,73.39
2018-08-31T07:35:34.018Z,73.15
2018-08-31T07:38:02.341Z,72.67
2018-08-31T07:40:30.665Z,71.56
2018-08-31T07:42:59.003Z,71.38
2018-08-31T07:45:27.361Z,70.82
2018-08-31T07:47:55.747Z,70.97
2018-08-31T07:50:23.987Z,70.52
2018-08-31T07:52:52.509Z,70.81
2018-08-31T07:55:20.824Z,70.36
2018-08-31T07:57:49.118Z,71.01
2018-08-31T08:00:17.378Z,70.68
2018-08-31T08:02:45.664Z,70.17
2018-08-31T08:05:13.983Z,69.36
2018-08-31T08:07:42.343Z,70.12
2018-08-31T08:10:10.621Z,69.11
2018-08-31T08:12:39.060Z,69.21
2018-08-31T08:15:07.458Z,68.61
2018-08-31T08:17:35.764Z,68.87
2018-08-31T08:20:04.029Z,68.07
2018-08-31T08:22:32.678Z,68.45
2018-08-31T08:25:01.002Z,67.70
2018-08-31T08:27:30.045Z,67.14
2018-08-31T08:29:58.358Z,66.22
2018-08-31T08:32:26.670Z,65.62
2018-08-31T08:34:54.995Z,65.39
2018-08-31T08:37:23.319Z,65.02
2018-08-31T08:39:51.613Z,64.34
2018-08-31T08:42:19.961Z,64.18
2018-08-31T08:44:48.240Z,63.53
2018-08-31T08:47:16.539Z,64.13
2018-08-31T08:49:44.940Z,63.84
2018-08-31T08:52:13.272Z,63.05
2018-08-31T08:54:41.694Z,63.04
2018-08-31T08:57:09.957Z,62.31
2018-08-31T08:59:38.243Z,61.40
2018-08-31T09:02:06.606Z,61.08
2018-08-31T09:04:34.960Z,60.03
2018-08-31T09:07:03.252Z,60.47
2018-08-31T09:09:31.568Z,57.57
2018-08-31T09:11:59.920Z,56.99
2018-08-31T09:14:28.157Z,57.14
2018-08-31T09:16:56.459Z,57.53
2018-08-31T09:19:24.782Z,57.73
2018-08-31T09:21:53.208Z,57.45
2018-08-31T09:24:21.463Z,56.00
2018-08-31T09:26:49.852Z,55.93
2018-08-31T09:29:19.668Z,56.41
2018-08-31T09:31:47.965Z,54.98
2018-08-31T09:34:16.267Z,54.89
2018-08-31T09:36:44.633Z,54.59
2018-08-31T09:39:12.955Z,55.00
2018-08-31T09:41:41.273Z,55.46
2018-08-31T09:44:09.585Z,56.05
2018-08-31T09:46:37.900Z,56.68
2018-08-31T09:49:06.444Z,52.88
2018-08-31T09:51:34.758Z,54.21
2018-08-31T09:54:03.092Z,53.49
2018-08-31T09:56:31.431Z,55.13
2018-08-31T09:58:59.783Z,55.42
2018-08-31T10:01:34.562Z,53.80
2018-08-31T10:04:03.577Z,52.94
2018-08-31T10:06:32.930Z,53.51
2018-08-31T10:09:01.248Z,53.50
2018-08-31T10:11:29.931Z,52.88
2018-08-31T10:13:58.254Z,52.48
2018-08-31T10:16:26.540Z,54.51
2018-08-31T10:18:54.859Z,55.53
2018-08-31T10:21:23.196Z,55.19
2018-08-31T10:23:51.523Z,54.75
2018-08-31T10:26:19.889Z,53.59
2018-08-31T10:28:48.165Z,52.44
2018-08-31T10:31:16.532Z,52.06
2018-08-31T10:33:44.847Z,53.94
2018-08-31T10:36:13.153Z,53.85
2018-08-31T10:38:41.630Z,52.20
2018-08-31T10:41:10.141Z,51.99
2018-08-31T10:43:38.467Z,52.09
2018-08-31T10:46:06.896Z,51.79
2018-08-31T10:48:35.253Z,52.54
2018-08-31T10:51:03.576Z,52.56
2018-08-31T10:53:31.985Z,52.33
2018-08-31T10:56:00.293Z,51.53
2018-08-31T10:58:28.577Z,52.45
2018-08-31T11:00:56.870Z,52.55
2018-08-31T11:03:25.252Z,52.30
2018-08-31T11:05:53.538Z,50.88
2018-08-31T11:08:21.848Z,51.48
2018-08-31T11:10:50.155Z,51.79
2018-08-31T11:13:18.556Z,51.28
2018-08-31T11:15:46.877Z,51.24
2018-08-31T11:18:15.204Z,50.69
2018-08-31T11:20:43.527Z,47.25
2018-08-31T11:23:11.856Z,47.07
2018-08-31T11:25:40.165Z,48.36
2018-08-31T11:28:08.655Z,47.22
2018-08-31T11:30:36.953Z,47.44
2018-08-31T11:33:05.436Z,47.03
2018-08-31T11:35:33.731Z,47.91
2018-08-31T11:38:02.135Z,48.32
2018-08-31T11:40:30.459Z,48.64
2018-08-31T11:42:58.930Z,48.70
2018-08-31T11:45:27.227Z,48.80
2018-08-31T11:47:55.645Z,50.25
2018-08-31T11:50:23.972Z,50.29
2018-08-31T11:52:52.593Z,51.30
2018-08-31T11:55:20.886Z,50.04
2018-08-31T11:57:49.186Z,50.50
2018-08-31T12:00:17.587Z,50.96
2018-08-31T12:02:45.924Z,51.46
2018-08-31T12:05:14.238Z,51.05
2018-08-31T12:07:42.555Z,50.69
2018-08-31T12:10:10.906Z,50.19
2018-08-31T12:12:39.199Z,50.40
2018-08-31T12:15:07.522Z,48.96
2018-08-31T12:17:35.827Z,47.53
2018-08-31T12:20:04.177Z,47.87
2018-08-31T12:22:32.473Z,48.88
2018-08-31T12:25:00.778Z,48.51
2018-08-31T12:27:29.084Z,48.18
2018-08-31T12:29:57.440Z,47.51
2018-08-31T12:32:25.739Z,47.33
2018-08-31T12:34:54.074Z,46.87
2018-08-31T12:37:22.363Z,47.75
2018-08-31T12:39:50.822Z,46.58
2018-08-31T12:42:19.259Z,47.82
2018-08-31T12:44:47.552Z,47.17
2018-08-31T12:47:15.884Z,47.13
2018-08-31T12:49:44.212Z,47.35
2018-08-31T12:52:12.531Z,46.63
2018-08-31T12:54:40.882Z,46.72
2018-08-31T12:57:09.211Z,45.41
2018-08-31T12:59:37.510Z,45.98
2018-08-31T13:02:05.791Z,45.51
2018-08-31T13:04:34.152Z,45.44
2018-08-31T13:07:02.471Z,45.75
2018-08-31T13:09:30.895Z,44.99
2018-08-31T13:11:59.213Z,44.83
2018-08-31T13:14:27.522Z,44.47
2018-08-31T13:16:55.889Z,44.70
2018-08-31T13:19:24.202Z,45.33
2018-08-31T13:21:52.472Z,46.08
2018-08-31T13:24:20.806Z,47.24
2018-08-31T13:26:49.147Z,46.93
2018-08-31T13:29:17.517Z,47.01
2018-08-31T13:31:45.833Z,46.48
2018-08-31T13:34:14.139Z,46.14
2018-08-31T13:36:42.468Z,46.56
2018-08-31T13:39:10.765Z,46.73
2018-08-31T13:41:39.101Z,45.98
2018-08-31T13:44:07.514Z,45.75
2018-08-31T13:46:35.815Z,42.58
2018-08-31T13:49:04.130Z,41.84
2018-08-31T13:51:32.535Z,41.90
2018-08-31T13:54:00.849Z,41.98
2018-08-31T13:56:29.193Z,42.88
2018-08-31T13:58:57.476Z,42.88
2018-08-31T14:01:25.799Z,41.71
2018-08-31T14:03:54.112Z,42.38
2018-08-31T14:06:22.450Z,42.55
2018-08-31T14:08:50.934Z,42.66
2018-08-31T14:11:19.185Z,43.04
2018-08-31T14:13:47.527Z,43.15
2018-08-31T14:16:15.837Z,42.92
2018-08-31T14:18:44.214Z,43.40
2018-08-31T14:21:12.619Z,44.10
2018-08-31T14:23:41.171Z,44.46
2018-08-31T14:26:09.456Z,44.54
2018-08-31T14:28:37.833Z,44.64
2018-08-31T14:31:06.129Z,44.28
2018-08-31T14:33:34.443Z,44.72
2018-08-31T14:36:02.909Z,44.08
2018-08-31T14:38:31.239Z,44.08
2018-08-31T14:40:59.568Z,43.92
2018-08-31T14:43:27.957Z,43.96
2018-08-31T14:45:56.263Z,44.20
2018-08-31T14:48:24.573Z,44.79
2018-08-31T14:50:52.945Z,44.80
2018-08-31T14:53:21.288Z,45.94
2018-08-31T14:55:49.615Z,45.75
2018-08-31T14:58:18.143Z,45.28
2018-08-31T15:00:46.483Z,43.76
2018-08-31T15:03:14.778Z,43.49
2018-08-31T15:05:43.092Z,44.07
2018-08-31T15:08:11.383Z,44.10
2018-08-31T15:10:39.821Z,43.93
2018-08-31T15:13:08.211Z,44.09
2018-08-31T15:15:36.437Z,43.85
2018-08-31T15:18:04.849Z,44.08
2018-08-31T15:20:33.148Z,44.43
2018-08-31T15:23:01.462Z,44.19
2018-08-31T15:25:29.771Z,44.33
2018-08-31T15:27:58.441Z,44.79
2018-08-31T15:30:26.735Z,44.76
2018-08-31T15:32:55.030Z,44.99
2018-08-31T15:35:23.748Z,45.72
2018-08-31T15:37:52.035Z,45.48
2018-08-31T15:40:20.293Z,45.62
2018-08-31T15:42:48.650Z,45.35
2018-08-31T15:45:16.902Z,45.49
2018-08-31T15:47:45.217Z,45.50
2018-08-31T15:50:13.542Z,45.94
2018-08-31T15:52:41.922Z,45.99
2018-08-31T15:55:10.238Z,45.99
2018-08-31T15:57:38.759Z,46.00
2018-08-31T16:00:08.743Z,46.08
2018-08-31T16:02:37.033Z,45.58
2018-08-31T16:05:05.388Z,45.95
2018-08-31T16:07:33.752Z,46.70
2018-08-31T16:10:02.025Z,46.71
2018-08-31T16:12:30.269Z,47.29
2018-08-31T16:14:58.567Z,47.35
2018-08-31T16:17:26.896Z,47.86
2018-08-31T16:19:55.199Z,47.30
2018-08-31T16:22:23.488Z,46.64
2018-08-31T16:24:51.979Z,46.77
2018-08-31T16:27:20.538Z,47.19
2018-08-31T16:29:48.940Z,46.19
2018-08-31T16:32:17.261Z,45.75
2018-08-31T16:34:45.630Z,45.77
2018-08-31T16:37:13.987Z,45.80
2018-08-31T16:39:42.307Z,46.37
2018-08-31T16:42:10.615Z,45.84
2018-08-31T16:44:39.104Z,46.26
2018-08-31T16:47:07.477Z,46.57
2018-08-31T16:49:35.770Z,46.98
2018-08-31T16:52:04.228Z,47.50
2018-08-31T16:54:32.534Z,47.08
2018-08-31T16:57:00.870Z,47.08
2018-08-31T16:59:29.177Z,47.80
2018-08-31T17:01:57.560Z,47.88
2018-08-31T17:04:25.943Z,47.59
2018-08-31T17:06:54.294Z,47.87
2018-08-31T17:09:22.600Z,48.53
2018-08-31T17:11:51.095Z,48.70
2018-08-31T17:14:19.424Z,49.26
2018-08-31T17:16:47.752Z,49.41
2018-08-31T17:19:16.029Z,49.02
2018-08-31T17:21:44.326Z,49.36
2018-08-31T17:24:12.648Z,49.22
2018-08-31T17:26:46.385Z,50.23
2018-08-31T17:29:19.947Z,50.08
2018-08-31T17:31:53.359Z,50.66
2018-08-31T17:34:27.021Z,50.10
2018-08-31T17:37:00.794Z,50.61
2018-08-31T17:39:29.143Z,51.10
2018-08-31T17:41:57.435Z,51.29
2018-08-31T17:44:26.263Z,51.44
2018-08-31T17:46:54.591Z,51.56
2018-08-31T17:49:23.191Z,51.82
2018-08-31T17:51:51.590Z,51.51
2018-08-31T17:54:19.935Z,51.21
2018-08-31T17:56:48.329Z,51.14
2018-08-31T17:59:16.598Z,51.54
2018-08-31T18:01:44.938Z,51.91
2018-08-31T18:04:13.241Z,52.13
2018-08-31T18:06:41.541Z,52.00
2018-08-31T18:09:09.877Z,51.93
2018-08-31T18:11:38.319Z,51.82
2018-08-31T18:14:06.626Z,51.81
2018-08-31T18:16:35.141Z,52.01
2018-08-31T18:19:03.463Z,51.74
2018-08-31T18:21:31.837Z,52.15
2018-08-31T18:24:00.224Z,52.14
2018-08-31T18:26:28.543Z,51.92
2018-08-31T18:28:56.825Z,51.82
2018-08-31T18:31:25.167Z,52.54
2018-08-31T18:33:53.472Z,52.26
2018-08-31T18:36:21.772Z,52.80
2018-08-31T18:38:50.053Z,53.27
2018-08-31T18:41:18.358Z,53.56
2018-08-31T18:43:46.661Z,53.22
2018-08-31T18:46:15.003Z,53.33
2018-08-31T18:48:43.415Z,53.66
2018-08-31T18:51:11.716Z,54.04
2018-08-31T18:53:40.034Z,53.87
2018-08-31T18:56:08.499Z,54.73
2018-08-31T18:58:36.845Z,54.33
2018-08-31T19:01:05.206Z,54.72
2018-08-31T19:03:33.462Z,55.30
2018-08-31T19:06:01.818Z,54.87
2018-08-31T19:08:30.185Z,56.01
2018-08-31T19:10:58.484Z,56.29
2018-08-31T19:13:26.812Z,56.18
2018-08-31T19:15:55.075Z,55.87
2018-08-31T19:18:23.433Z,56.29
2018-08-31T19:20:51.745Z,56.23
2018-08-31T19:23:20.069Z,56.74
2018-08-31T19:25:48.365Z,55.91
2018-08-31T19:28:16.698Z,56.73
2018-08-31T19:30:44.985Z,56.38
2018-08-31T19:33:13.328Z,56.93
2018-08-31T19:35:41.681Z,56.33
2018-08-31T19:38:09.991Z,57.44
2018-08-31T19:40:38.267Z,57.73
2018-08-31T19:43:06.589Z,58.22
2018-08-31T19:45:35.077Z,58.32
2018-08-31T19:48:03.520Z,58.57
2018-08-31T19:50:31.823Z,58.61
2018-08-31T19:53:00.130Z,58.40
2018-08-31T19:55:28.462Z,58.63
2018-08-31T19:57:56.906Z,58.86
2018-08-31T20:00:25.225Z,59.46
2018-08-31T20:02:53.541Z,58.79
2018-08-31T20:05:22.249Z,59.09
2018-08-31T20:07:50.584Z,59.05
2018-08-31T20:10:18.940Z,59.14
2018-08-31T20:12:47.237Z,59.75
2018-08-31T20:15:15.506Z,59.79
2018-08-31T20:17:43.843Z,60.53
2018-08-31T20:20:12.215Z,60.41
2018-08-31T20:22:40.516Z,61.01
2018-08-31T20:25:08.832Z,61.83
2018-08-31T20:27:37.131Z,63.05
2018-08-31T20:30:05.798Z,63.83
2018-08-31T20:32:34.277Z,63.68
2018-08-31T20:35:02.569Z,64.85
2018-08-31T20:37:30.863Z,64.88
2018-08-31T20:39:59.194Z,65.76
2018-08-31T20:42:27.520Z,66.23
2018-08-31T20:44:55.824Z,66.35
2018-08-31T20:47:24.212Z,67.14
2018-08-31T20:49:52.515Z,67.35
2018-08-31T20:52:20.804Z,67.45
2018-08-31T20:54:49.324Z,67.72
2018-08-31T20:57:17.647Z,67.48
2018-08-31T20:59:45.960Z,68.37
2018-08-31T21:02:14.302Z,68.20
2018-08-31T21:04:42.580Z,68.39
2018-08-31T21:07:10.867Z,68.86
2018-08-31T21:09:39.185Z,68.85
2018-08-31T21:12:07.516Z,68.13
2018-08-31T21:14:35.849Z,69.03
2018-08-31T21:17:04.183Z,69.05
2018-08-31T21:19:32.488Z,68.75
2018-08-31T21:22:00.810Z,69.69
2018-08-31T21:24:29.137Z,68.97
2018-08-31T21:26:57.482Z,69.42
2018-08-31T21:29:25.842Z,69.97
2018-08-31T21:31:54.155Z,69.97
2018-08-31T21:34:22.419Z,69.71
2018-08-31T21:36:50.815Z,70.63
2018-08-31T21:39:19.102Z,70.62
2018-08-31T21:41:47.415Z,70.50
2018-08-31T21:44:15.739Z,70.83
2018-08-31T21:46:44.047Z,71.45
2018-08-31T21:49:12.339Z,70.79
2018-08-31T21:51:40.724Z,71.44
2018-08-31T21:54:09.057Z,71.29
2018-08-31T21:56:37.377Z,71.91
2018-08-31T21:59:05.931Z,72.32
2018-08-31T22:01:38.366Z,71.82
2018-08-31T22:04:07.317Z,72.47
2018-08-31T22:06:36.847Z,72.60
2018-08-31T22:09:07.141Z,72.73
2018-08-31T22:11:35.727Z,73.11
2018-08-31T22:14:04.025Z,72.87
2018-08-31T22:16:32.334Z,73.06
2018-08-31T22:19:00.730Z,73.68
2018-08-31T22:21:29.036Z,73.10
2018-08-31T22:23:57.398Z,73.51
2018-08-31T22:26:25.819Z,74.16
2018-08-31T22:28:54.115Z,73.50
2018-08-31T22:31:22.422Z,74.31
2018-08-31T22:33:50.871Z,73.67
2018-08-31T22:36:19.179Z,74.41
2018-08-31T22:38:47.634Z,73.78
2018-08-31T22:41:15.965Z,74.53
2018-08-31T22:43:51.270Z,74.60
2018-08-31T22:46:21.139Z,74.24
2018-08-31T22:48:49.844Z,74.70
2018-08-31T22:51:18.611Z,75.05
2018-08-31T22:53:46.905Z,74.97
2018-08-31T22:56:15.248Z,74.57
2018-08-31T22:58:43.700Z,75.06
2018-08-31T23:01:11.988Z,75.18
2018-08-31T23:03:40.387Z,75.48
2018-08-31T23:06:08.717Z,75.58
2018-08-31T23:08:37.024Z,76.01
2018-08-31T23:11:09.017Z,76.06
2018-08-31T23:13:38.105Z,75.63
2018-08-31T23:16:06.847Z,76.50
2018-08-31T23:18:35.136Z,76.01
2018-08-31T23:21:03.623Z,76.35
2018-08-31T23:23:37.197Z,76.75
2018-08-31T23:26:05.528Z,77.24
2018-08-31T23:28:33.810Z,77.25
2018-08-31T23:31:40.876Z,77.31
2018-08-31T23:34:09.225Z,77.68
2018-08-31T23:36:37.506Z,77.58
2018-08-31T23:39:07.383Z,77.50
2018-08-31T23:41:35.718Z,77.39
2018-08-31T23:44:04.008Z,77.57
2018-08-31T23:46:32.467Z,77.82
2018-08-31T23:49:00.754Z,78.58
2018-08-31T23:51:29.067Z,78.23
2018-08-31T23:53:57.376Z,78.29
2018-08-31T23:56:25.671Z,78.42
2018-08-31T23:58:53.924Z,78.85
